Time;durP1;ratioP1;P1;durP2;ratioP2;P2;SDS_P1;SDS_P2;PMS_P1;PMS_P2;Temp;Humidity;BMP_temperature;BMP_pressure;BME280_temperature;BME280_humidity;BME280_pressure;Samples;Min_cycle;Max_cycle;Signal;HPM_P1;HPM_P2
2023/07/27 00:00:48;;;;;;;6.07;3.05;;;13.40;99.90;;;;;;5068005;28;20563;-77
2023/07/27 00:03:19;;;;;;;4.47;3.10;;;13.40;99.90;;;;;;5064935;28;20554;-77
2023/07/27 00:05:49;;;;;;;8.63;3.35;;;13.40;99.90;;;;;;5056311;28;20198;-77
2023/07/27 00:08:22;;;;;;;5.95;3.50;;;13.50;99.90;;;;;;5064061;28;20205;-74
2023/07/27 00:10:53;;;;;;;6.32;4.07;;;13.70;99.90;;;;;;5061105;28;20193;-76
2023/07/27 00:13:23;;;;;;;5.97;4.00;;;13.80;99.90;;;;;;5056179;28;20704;-74
2023/07/27 00:15:54;;;;;;;8.75;4.63;;;13.90;99.90;;;;;;5069901;28;20195;-77
2023/07/27 00:18:25;;;;;;;9.02;4.35;;;14.00;99.90;;;;;;5067760;28;20210;-79
2023/07/27 00:20:56;;;;;;;5.80;4.35;;;14.10;99.90;;;;;;5064895;28;20231;-79
2023/07/27 00:23:29;;;;;;;11.02;5.25;;;14.20;99.90;;;;;;5076908;28;20199;-78
2023/07/27 00:25:59;;;;;;;8.70;4.97;;;14.30;99.90;;;;;;5084204;28;20285;-79
2023/07/27 00:28:30;;;;;;;8.77;4.20;;;14.40;99.90;;;;;;5074804;28;20201;-80
2023/07/27 00:31:01;;;;;;;7.88;4.90;;;14.50;99.90;;;;;;5067139;28;20778;-78
2023/07/27 00:33:32;;;;;;;10.43;5.05;;;14.60;99.90;;;;;;5055231;28;20577;-79
2023/07/27 00:36:03;;;;;;;9.38;5.03;;;14.70;99.90;;;;;;5055139;28;20208;-79
2023/07/27 00:38:36;;;;;;;9.60;4.85;;;14.90;99.90;;;;;;5054620;28;20280;-78
2023/07/27 00:41:07;;;;;;;6.90;4.70;;;15.00;99.90;;;;;;5055678;28;20232;-79
2023/07/27 00:43:38;;;;;;;7.13;4.93;;;15.10;99.90;;;;;;5054408;28;20202;-79
2023/07/27 00:46:09;;;;;;;9.57;4.60;;;15.20;99.90;;;;;;5080728;28;20231;-78
2023/07/27 00:48:41;;;;;;;7.25;4.57;;;15.30;99.90;;;;;;5081562;28;20216;-82
2023/07/27 00:51:12;;;;;;;10.95;4.55;;;15.20;99.90;;;;;;5070295;28;20193;-80
2023/07/27 00:53:45;;;;;;;8.85;4.72;;;15.60;99.90;;;;;;5076924;28;20592;-77
2023/07/27 00:56:16;;;;;;;6.82;4.65;;;15.60;99.90;;;;;;5075473;28;20185;-79
2023/07/27 00:58:48;;;;;;;7.07;4.50;;;15.70;99.90;;;;;;5075344;28;20645;-80
2023/07/27 01:01:19;;;;;;;8.38;4.95;;;15.80;99.90;;;;;;5074191;28;20555;-80
2023/07/27 01:03:50;;;;;;;9.73;4.50;;;15.90;99.90;;;;;;5075237;28;20200;-80
2023/07/27 01:06:21;;;;;;;6.10;3.95;;;16.00;99.90;;;;;;5073279;28;20215;-79
2023/07/27 01:08:54;;;;;;;6.07;4.70;;;16.10;99.90;;;;;;5059653;28;20900;-79
2023/07/27 01:11:34;;;;;;;9.13;4.90;;;16.20;99.90;;;;;;5054723;28;20645;-79
2023/07/27 01:14:11;;;;;;;8.05;5.00;;;16.20;99.90;;;;;;5054126;28;20224;-79
2023/07/27 01:16:47;;;;;;;8.55;5.07;;;16.40;99.90;;;;;;5060938;28;20200;-79
2023/07/27 01:19:33;;;;;;;8.95;5.32;;;16.60;99.90;;;;;;5054207;28;20779;-79
2023/07/27 01:22:18;;;;;;;12.82;4.93;;;16.70;99.90;;;;;;5060671;28;20197;-80
2023/07/27 01:25:09;;;;;;;9.18;4.25;;;16.80;99.90;;;;;;5055210;28;20205;-81
2023/07/27 01:27:53;;;;;;;7.15;4.70;;;16.90;99.90;;;;;;5059465;28;20209;-79
2023/07/27 01:30:53;;;;;;;6.50;4.38;;;17.10;99.90;;;;;;5071705;28;20199;-79
2023/07/27 01:33:32;;;;;;;7.45;4.60;;;17.20;99.90;;;;;;5061659;28;20240;-80
2023/07/27 01:36:10;;;;;;;7.22;4.25;;;17.30;99.90;;;;;;5066577;28;20283;-80
2023/07/27 01:38:45;;;;;;;6.28;4.45;;;17.30;99.90;;;;;;5069908;28;20224;-80
2023/07/27 01:41:16;;;;;;;9.82;4.40;;;17.40;99.90;;;;;;5071031;28;20196;-78
2023/07/27 01:43:48;;;;;;;7.55;4.35;;;17.40;99.90;;;;;;5065441;28;20201;-82
2023/07/27 01:46:19;;;;;;;7.38;4.82;;;17.50;99.90;;;;;;5067406;28;20228;-80
2023/07/27 01:48:56;;;;;;;11.73;4.80;;;17.60;99.90;;;;;;5066888;28;20359;-82
2023/07/27 01:51:27;;;;;;;7.18;4.53;;;17.70;99.90;;;;;;5064033;28;20201;-78
2023/07/27 01:53:59;;;;;;;9.60;4.93;;;17.70;99.90;;;;;;5067114;28;20208;-81
2023/07/27 01:56:31;;;;;;;8.60;4.63;;;17.70;99.90;;;;;;5063560;28;21736;-82
2023/07/27 01:59:02;;;;;;;10.13;4.32;;;17.80;99.90;;;;;;5067206;28;20228;-76
2023/07/27 02:01:34;;;;;;;10.50;5.32;;;17.90;99.90;;;;;;5067314;28;20200;-81
2023/07/27 02:04:07;;;;;;;12.10;4.70;;;17.90;99.90;;;;;;5062590;28;20194;-80
2023/07/27 02:06:38;;;;;;;9.50;4.32;;;17.90;99.90;;;;;;5060402;28;20197;-80
2023/07/27 02:09:09;;;;;;;5.13;3.08;;;17.90;99.90;;;;;;5057871;28;20750;-77
2023/07/27 02:11:44;;;;;;;4.85;2.90;;;18.10;99.90;;;;;;5073482;28;20197;-77
2023/07/27 02:14:21;;;;;;;8.45;3.30;;;18.20;99.90;;;;;;5072879;28;20747;-82
2023/07/27 02:16:56;;;;;;;4.55;3.45;;;18.30;99.90;;;;;;5071907;28;20674;-77
2023/07/27 02:19:32;;;;;;;6.47;3.70;;;18.40;99.90;;;;;;5063122;28;20201;-76
2023/07/27 02:22:05;;;;;;;6.28;3.03;;;18.50;99.90;;;;;;5065867;28;20192;-80
2023/07/27 02:24:37;;;;;;;5.00;3.20;;;18.60;99.90;;;;;;5070804;28;20207;-75
2023/07/27 02:27:08;;;;;;;7.40;3.08;;;18.60;99.90;;;;;;5065828;28;20207;-77
2023/07/27 02:29:39;;;;;;;5.90;3.00;;;18.70;99.90;;;;;;5062346;28;20198;-77
2023/07/27 02:32:11;;;;;;;5.72;3.00;;;18.70;99.90;;;;;;5063009;28;20205;-81
2023/07/27 02:34:43;;;;;;;8.77;4.03;;;18.80;99.90;;;;;;5063860;28;20563;-81
2023/07/27 02:37:14;;;;;;;6.47;3.08;;;18.80;99.90;;;;;;5068786;28;20197;-81
2023/07/27 02:39:45;;;;;;;4.30;2.53;;;18.90;99.90;;;;;;5072156;28;20645;-83
2023/07/27 02:42:16;;;;;;;4.68;2.88;;;18.90;99.90;;;;;;5061511;28;20272;-81
2023/07/27 02:44:46;;;;;;;3.53;2.70;;;18.90;99.90;;;;;;5066256;28;20204;-81
2023/07/27 02:47:17;;;;;;;3.55;2.72;;;18.90;99.90;;;;;;5068727;28;20200;-80
2023/07/27 02:49:50;;;;;;;3.63;2.50;;;19.00;99.90;;;;;;5062074;28;20280;-78
2023/07/27 02:52:21;;;;;;;5.00;2.60;;;19.00;99.90;;;;;;5052408;28;20197;-80
2023/07/27 02:54:52;;;;;;;5.63;2.88;;;19.10;99.90;;;;;;5053153;28;20218;-79
2023/07/27 02:57:23;;;;;;;4.68;2.78;;;19.20;99.90;;;;;;5062595;28;20207;-82
2023/07/27 02:59:54;;;;;;;4.97;2.40;;;19.40;99.90;;;;;;5058704;28;20197;-81
2023/07/27 03:02:24;;;;;;;7.22;2.70;;;19.40;99.90;;;;;;5069490;28;20559;-80
2023/07/27 03:04:57;;;;;;;4.95;2.78;;;19.50;99.90;;;;;;5072121;28;20196;-80
2023/07/27 03:07:28;;;;;;;4.50;2.58;;;19.40;99.90;;;;;;5072883;28;20197;-82
2023/07/27 03:09:59;;;;;;;3.75;2.40;;;19.30;99.90;;;;;;5071088;28;20227;-81
2023/07/27 03:12:30;;;;;;;5.47;2.53;;;19.10;99.90;;;;;;5072219;28;20208;-79
2023/07/27 03:15:01;;;;;;;7.22;2.50;;;19.10;99.90;;;;;;5057764;28;20193;-75
2023/07/27 03:17:31;;;;;;;3.38;2.20;;;19.10;99.90;;;;;;5076593;28;20553;-78
2023/07/27 03:20:04;;;;;;;2.85;2.10;;;19.30;99.90;;;;;;5077001;28;20272;-83
2023/07/27 03:22:35;;;;;;;3.75;2.17;;;19.40;99.90;;;;;;5077173;28;20195;-82
2023/07/27 03:25:06;;;;;;;5.38;2.42;;;19.60;99.90;;;;;;5076822;28;20188;-78
2023/07/27 03:27:37;;;;;;;3.03;2.17;;;19.70;99.90;;;;;;5076831;28;20196;-78
2023/07/27 03:30:08;;;;;;;2.72;2.25;;;19.70;99.90;;;;;;5076864;28;20561;-79
2023/07/27 03:32:39;;;;;;;4.97;2.42;;;19.80;99.90;;;;;;5076827;28;20189;-79
2023/07/27 03:35:13;;;;;;;7.22;2.35;;;19.90;99.90;;;;;;5076878;28;20197;-78
2023/07/27 03:37:44;;;;;;;2.72;1.95;;;19.90;99.90;;;;;;5076883;28;20328;-77
2023/07/27 03:40:15;;;;;;;4.95;2.28;;;20.00;99.90;;;;;;5076775;28;20667;-82
2023/07/27 03:42:45;;;;;;;2.78;2.00;;;20.10;99.90;;;;;;5076565;28;20193;-81
2023/07/27 03:45:17;;;;;;;4.10;2.70;;;20.10;99.90;;;;;;5076227;28;20192;-80
2023/07/27 03:47:48;;;;;;;4.43;2.70;;;20.10;99.90;;;;;;5076614;28;20189;-81
2023/07/27 03:50:20;;;;;;;4.82;2.60;;;20.00;99.90;;;;;;5076829;28;20276;-80
2023/07/27 03:52:51;;;;;;;5.15;2.17;;;19.90;99.90;;;;;;5076565;28;20216;-80
2023/07/27 03:55:22;;;;;;;3.15;2.10;;;19.90;99.90;;;;;;5076605;28;20309;-81
2023/07/27 03:57:53;;;;;;;4.05;2.20;;;19.90;99.90;;;;;;5076534;28;20193;-79
2023/07/27 04:00:24;;;;;;;7.53;2.60;;;20.00;99.90;;;;;;5076163;28;20193;-80
2023/07/27 04:02:55;;;;;;;5.30;2.42;;;20.00;99.90;;;;;;5076220;28;20215;-81
2023/07/27 04:05:28;;;;;;;4.97;2.20;;;20.10;99.90;;;;;;5076525;28;20192;-80
2023/07/27 04:07:58;;;;;;;4.13;2.08;;;20.10;99.90;;;;;;5076719;28;20193;-81
2023/07/27 04:10:29;;;;;;;4.85;2.33;;;20.10;99.90;;;;;;5076131;28;20243;-80
2023/07/27 04:13:00;;;;;;;2.10;1.75;;;20.10;99.90;;;;;;5076029;28;20621;-81
2023/07/27 04:15:31;;;;;;;4.78;2.38;;;20.20;99.90;;;;;;5075948;28;20185;-80
2023/07/27 04:18:02;;;;;;;4.05;2.10;;;20.20;99.90;;;;;;5076027;28;20189;-80
2023/07/27 04:20:35;;;;;;;5.32;2.20;;;20.30;99.90;;;;;;5076057;28;20280;-81
2023/07/27 04:23:05;;;;;;;4.93;2.00;;;20.30;99.90;;;;;;5075130;28;20189;-80
2023/07/27 04:25:39;;;;;;;6.68;2.08;;;20.30;99.90;;;;;;5076046;28;20662;-79
2023/07/27 04:28:10;;;;;;;3.78;2.15;;;20.20;99.90;;;;;;5075571;28;20189;-80
2023/07/27 04:30:42;;;;;;;4.43;2.10;;;20.10;99.90;;;;;;5075784;28;20189;-80
2023/07/27 04:33:12;;;;;;;5.72;2.30;;;20.10;99.90;;;;;;5075549;28;20276;-81
2023/07/27 04:35:45;;;;;;;7.40;2.55;;;20.10;99.90;;;;;;5075518;28;20193;-80
2023/07/27 04:38:16;;;;;;;5.22;2.40;;;20.10;99.90;;;;;;5075436;28;20684;-78
2023/07/27 04:40:47;;;;;;;5.20;2.33;;;20.10;99.90;;;;;;5075681;28;20633;-80
2023/07/27 04:43:17;;;;;;;5.25;2.30;;;20.10;99.90;;;;;;5075127;28;20192;-79
2023/07/27 04:45:48;;;;;;;6.15;2.38;;;20.10;99.90;;;;;;5075370;28;20197;-80
2023/07/27 04:48:19;;;;;;;5.68;2.70;;;20.10;99.90;;;;;;5075449;28;20196;-80
2023/07/27 04:50:52;;;;;;;6.10;2.58;;;20.00;99.90;;;;;;5075181;28;20243;-80
2023/07/27 04:53:22;;;;;;;6.38;2.53;;;19.90;99.90;;;;;;5075117;28;20189;-79
2023/07/27 04:55:53;;;;;;;6.45;2.30;;;19.80;99.90;;;;;;5075308;28;20197;-79
2023/07/27 04:58:27;;;;;;;8.25;3.00;;;19.80;99.90;;;;;;5075127;28;20199;-77
2023/07/27 05:00:58;;;;;;;6.13;2.75;;;19.70;99.90;;;;;;5075120;28;20207;-78
2023/07/27 05:03:29;;;;;;;5.13;2.53;;;19.70;99.90;;;;;;5075239;28;20341;-76
2023/07/27 05:06:01;;;;;;;5.53;2.88;;;19.60;99.90;;;;;;5075416;28;20188;-76
2023/07/27 05:08:33;;;;;;;6.65;2.72;;;19.50;99.90;;;;;;5074708;28;20193;-79
2023/07/27 05:11:06;;;;;;;7.50;2.70;;;19.50;99.90;;;;;;5074909;28;20199;-80
2023/07/27 05:13:36;;;;;;;4.68;3.13;;;19.50;99.90;;;;;;5074832;28;20494;-81
2023/07/27 05:16:07;;;;;;;8.80;3.20;;;19.50;99.90;;;;;;5074806;28;20203;-80
2023/07/27 05:18:38;;;;;;;7.00;2.70;;;19.50;99.90;;;;;;5074953;28;20188;-80
2023/07/27 05:21:11;;;;;;;11.30;3.50;;;19.50;99.90;;;;;;5074779;28;20649;-80
2023/07/27 05:23:42;;;;;;;9.55;3.35;;;19.50;99.90;;;;;;5074680;28;20280;-81
2023/07/27 05:26:12;;;;;;;8.38;3.42;;;19.40;99.90;;;;;;5074549;28;20199;-80
2023/07/27 05:28:43;;;;;;;8.40;3.40;;;19.40;99.90;;;;;;5074732;28;20189;-80
2023/07/27 05:31:14;;;;;;;9.18;3.42;;;19.30;99.90;;;;;;5074793;28;20561;-81
2023/07/27 05:33:45;;;;;;;10.50;3.22;;;19.30;99.90;;;;;;5074582;28;20216;-80
2023/07/27 05:36:17;;;;;;;10.18;3.60;;;19.20;99.90;;;;;;5073642;28;20193;-79
2023/07/27 05:38:48;;;;;;;6.85;3.13;;;19.20;99.90;;;;;;5074838;28;20228;-80
2023/07/27 05:41:19;;;;;;;7.63;3.05;;;19.10;99.90;;;;;;5074226;28;20268;-79
2023/07/27 05:43:49;;;;;;;8.18;3.50;;;19.00;99.90;;;;;;5074294;28;20185;-80
2023/07/27 05:46:20;;;;;;;10.85;4.10;;;19.00;99.90;;;;;;5074441;28;20201;-78
2023/07/27 05:48:51;;;;;;;12.82;4.10;;;19.00;99.90;;;;;;5074374;28;20195;-79
2023/07/27 05:51:24;;;;;;;9.02;3.35;;;19.00;99.90;;;;;;5074038;28;20659;-80
2023/07/27 05:53:54;;;;;;;7.80;3.20;;;19.00;99.90;;;;;;5074171;28;20216;-79
2023/07/27 05:56:25;;;;;;;7.57;3.25;;;19.00;99.90;;;;;;5073992;28;20232;-80
2023/07/27 05:58:56;;;;;;;10.05;3.25;;;18.90;99.90;;;;;;5074127;28;20193;-79
2023/07/27 06:01:27;;;;;;;10.50;3.50;;;18.90;99.90;;;;;;5074336;28;20193;-80
2023/07/27 06:04:00;;;;;;;5.80;3.08;;;18.80;99.90;;;;;;5074113;28;20257;-81
2023/07/27 06:06:32;;;;;;;9.45;3.40;;;18.80;99.90;;;;;;5074211;28;20189;-80
2023/07/27 06:09:03;;;;;;;12.20;3.42;;;18.80;99.90;;;;;;5073772;28;20696;-79
2023/07/27 06:11:34;;;;;;;6.22;3.20;;;18.70;99.90;;;;;;5073982;28;20565;-78
2023/07/27 06:14:05;;;;;;;8.10;3.33;;;18.60;99.90;;;;;;5073889;28;20216;-79
2023/07/27 06:16:36;;;;;;;6.82;3.00;;;18.70;99.90;;;;;;5073990;28;20195;-79
2023/07/27 06:19:07;;;;;;;8.15;3.90;;;18.60;99.90;;;;;;5074198;28;20189;-79
2023/07/27 06:21:40;;;;;;;7.30;3.70;;;18.70;99.90;;;;;;5073936;28;20213;-80
2023/07/27 06:24:11;;;;;;;6.68;3.35;;;18.60;99.90;;;;;;5073638;28;20203;-79
2023/07/27 06:26:42;;;;;;;16.88;3.88;;;18.50;99.90;;;;;;5073676;28;20563;-79
2023/07/27 06:29:12;;;;;;;6.28;3.50;;;18.40;99.90;;;;;;5073831;28;20620;-76
2023/07/27 06:31:43;;;;;;;8.32;3.78;;;18.40;99.90;;;;;;5073698;28;20661;-79
2023/07/27 06:34:14;;;;;;;8.50;4.13;;;18.30;99.90;;;;;;5073596;28;20750;-79
2023/07/27 06:36:47;;;;;;;8.98;3.88;;;18.20;99.90;;;;;;5073553;28;20196;-80
2023/07/27 06:39:18;;;;;;;8.07;3.80;;;18.20;99.90;;;;;;5073308;28;20244;-78
2023/07/27 06:41:48;;;;;;;7.97;3.70;;;18.10;99.90;;;;;;5073428;28;20193;-79
2023/07/27 06:44:19;;;;;;;8.75;3.78;;;18.00;99.90;;;;;;5073176;28;20555;-77
2023/07/27 06:46:50;;;;;;;9.88;4.03;;;18.00;99.90;;;;;;5073053;28;20326;-79
2023/07/27 06:49:21;;;;;;;9.15;3.92;;;17.90;99.90;;;;;;5073801;28;20725;-79
2023/07/27 06:51:54;;;;;;;8.95;3.65;;;17.90;99.90;;;;;;5073418;28;20279;-79
2023/07/27 06:54:24;;;;;;;5.97;3.55;;;17.80;99.90;;;;;;5073741;28;20389;-78
2023/07/27 06:56:55;;;;;;;10.23;3.97;;;17.70;99.90;;;;;;5073276;28;20201;-79
2023/07/27 06:59:26;;;;;;;7.93;3.60;;;17.60;99.90;;;;;;5073340;28;20200;-78
2023/07/27 07:01:57;;;;;;;8.93;3.67;;;17.60;99.90;;;;;;5073446;28;20231;-80
2023/07/27 07:04:28;;;;;;;8.43;3.50;;;17.50;99.90;;;;;;5073299;28;20193;-78
2023/07/27 07:07:00;;;;;;;8.75;3.95;;;17.40;99.90;;;;;;5073384;28;20272;-77
2023/07/27 07:09:35;;;;;;;5.97;3.22;;;17.30;99.90;;;;;;5073118;28;20369;-79
2023/07/27 07:12:06;;;;;;;7.25;3.50;;;17.30;99.90;;;;;;5073037;28;20664;-78
2023/07/27 07:14:37;;;;;;;7.60;3.53;;;17.20;99.90;;;;;;5073082;28;20216;-77
2023/07/27 07:17:08;;;;;;;6.60;3.42;;;17.20;99.90;;;;;;5073218;28;20556;-78
2023/07/27 07:19:39;;;;;;;7.00;4.03;;;17.10;99.90;;;;;;5073524;28;20185;-77
2023/07/27 07:22:12;;;;;;;9.50;4.05;;;17.00;99.90;;;;;;5072763;28;20185;-78
2023/07/27 07:24:43;;;;;;;7.32;3.70;;;16.90;99.90;;;;;;5072916;28;20200;-79
2023/07/27 07:27:13;;;;;;;6.13;3.78;;;16.90;99.90;;;;;;5072775;28;20267;-80
2023/07/27 07:29:44;;;;;;;9.43;3.85;;;16.80;99.90;;;;;;5072640;28;20199;-79
2023/07/27 07:32:15;;;;;;;8.40;4.57;;;16.70;99.90;;;;;;5072909;28;20197;-79
2023/07/27 07:34:46;;;;;;;9.57;5.28;;;16.70;99.90;;;;;;5073533;28;20243;-79
2023/07/27 07:37:19;;;;;;;10.43;6.30;;;16.70;99.90;;;;;;5072515;28;20211;-77
2023/07/27 07:39:50;;;;;;;7.25;4.93;;;16.60;99.90;;;;;;5072584;28;20193;-77
2023/07/27 07:42:20;;;;;;;11.32;4.63;;;16.60;99.90;;;;;;5072620;28;20618;-77
2023/07/27 07:44:51;;;;;;;8.98;4.25;;;16.50;99.90;;;;;;5072580;28;20197;-77
2023/07/27 07:47:22;;;;;;;9.07;4.10;;;16.50;99.90;;;;;;5072626;28;20201;-77
2023/07/27 07:49:53;;;;;;;9.02;4.47;;;16.50;99.90;;;;;;5072490;28;20683;-77
2023/07/27 07:52:26;;;;;;;6.93;3.95;;;16.40;99.90;;;;;;5072691;28;20196;-77
2023/07/27 07:54:57;;;;;;;12.48;5.40;;;16.40;99.90;;;;;;5072777;28;20213;-77
2023/07/27 07:57:27;;;;;;;12.98;5.30;;;16.30;99.90;;;;;;5072463;28;20189;-77
2023/07/27 07:59:58;;;;;;;5.93;4.13;;;16.30;99.90;;;;;;5075802;28;20645;-74
2023/07/27 08:02:29;;;;;;;9.70;4.70;;;16.20;99.90;;;;;;5076543;28;20192;-76
2023/07/27 08:05:00;;;;;;;8.85;4.45;;;16.20;99.90;;;;;;5076502;28;20189;-78
2023/07/27 08:07:32;;;;;;;10.07;5.13;;;16.10;99.90;;;;;;5076637;28;20207;-74
2023/07/27 08:10:04;;;;;;;9.63;5.43;;;16.10;99.90;;;;;;5076075;28;20239;-78
2023/07/27 08:12:35;;;;;;;13.95;6.25;;;16.00;99.90;;;;;;5076066;28;20565;-78
2023/07/27 08:15:06;;;;;;;11.15;5.53;;;16.00;99.90;;;;;;5075888;28;20227;-78
2023/07/27 08:17:37;;;;;;;9.80;6.05;;;15.90;99.90;;;;;;5076013;28;20228;-77
2023/07/27 08:20:09;;;;;;;7.88;5.82;;;15.90;99.90;;;;;;5076177;28;20215;-79
2023/07/27 08:22:42;;;;;;;10.73;5.75;;;15.90;99.90;;;;;;5075970;28;20196;-78
2023/07/27 08:25:14;;;;;;;11.70;5.70;;;15.80;99.90;;;;;;5076030;28;20195;-78
2023/07/27 08:27:45;;;;;;;11.73;5.47;;;15.80;99.90;;;;;;5076277;28;20185;-78
2023/07/27 08:30:16;;;;;;;8.35;5.28;;;15.80;99.90;;;;;;5076064;28;20197;-78
2023/07/27 08:32:49;;;;;;;10.73;5.30;;;15.70;99.90;;;;;;5075682;28;20189;-79
2023/07/27 08:35:20;;;;;;;10.40;5.85;;;15.70;99.90;;;;;;5075606;28;20216;-77
2023/07/27 08:37:53;;;;;;;11.93;6.18;;;15.60;99.90;;;;;;5075548;28;20231;-78
2023/07/27 08:40:24;;;;;;;14.25;5.80;;;15.60;99.90;;;;;;5075707;28;20246;-77
2023/07/27 08:42:55;;;;;;;9.02;5.10;;;15.50;99.90;;;;;;5075693;28;20200;-78
2023/07/27 08:45:26;;;;;;;7.95;4.53;;;15.50;99.90;;;;;;5075617;28;20189;-78
2023/07/27 08:47:57;;;;;;;11.50;5.05;;;15.40;99.90;;;;;;5075641;28;20192;-78
2023/07/27 08:50:28;;;;;;;9.68;4.35;;;15.30;99.90;;;;;;5075169;28;20193;-77
2023/07/27 08:53:01;;;;;;;7.38;4.63;;;15.30;99.90;;;;;;5075271;28;20200;-78
2023/07/27 08:55:31;;;;;;;8.38;4.72;;;15.20;99.90;;;;;;5068642;28;20220;-77
2023/07/27 08:58:02;;;;;;;8.73;4.75;;;15.20;99.90;;;;;;5056129;28;20202;-78
2023/07/27 09:00:33;;;;;;;8.55;4.65;;;15.10;99.90;;;;;;5058753;28;20197;-78
2023/07/27 09:03:05;;;;;;;8.68;5.00;;;15.10;99.90;;;;;;5064421;28;20696;-76
2023/07/27 09:05:43;;;;;;;8.93;4.65;;;15.00;99.90;;;;;;5071463;28;20259;-77
2023/07/27 09:08:17;;;;;;;6.25;4.50;;;15.00;99.90;;;;;;5071691;28;20211;-77
2023/07/27 09:10:48;;;;;;;10.98;5.10;;;14.90;99.90;;;;;;5074303;28;20297;-78
2023/07/27 09:13:19;;;;;;;9.60;5.30;;;14.90;99.90;;;;;;5075033;28;20284;-78
2023/07/27 09:15:50;;;;;;;9.40;5.22;;;14.90;99.90;;;;;;5056380;28;20756;-78
2023/07/27 09:18:21;;;;;;;9.60;5.15;;;14.90;99.90;;;;;;5066146;28;20699;-77
2023/07/27 09:20:51;;;;;;;8.68;4.80;;;14.80;99.90;;;;;;5071765;28;20268;-78
2023/07/27 09:23:25;;;;;;;13.75;5.80;;;14.70;99.90;;;;;;5064490;28;20198;-79
2023/07/27 09:25:59;;;;;;;12.45;5.85;;;14.70;99.90;;;;;;5071742;28;20193;-78
2023/07/27 09:28:30;;;;;;;9.70;5.60;;;14.60;99.90;;;;;;5073588;28;20244;-77
2023/07/27 09:31:04;;;;;;;8.77;5.00;;;14.50;99.90;;;;;;5071305;28;20194;-77
2023/07/27 09:33:35;;;;;;;7.68;4.80;;;14.50;99.90;;;;;;5066070;28;20197;-78
2023/07/27 09:36:07;;;;;;;7.25;4.82;;;14.50;99.90;;;;;;5067528;28;20232;-78
2023/07/27 09:38:41;;;;;;;9.95;4.90;;;14.50;99.90;;;;;;5071233;28;20220;-77
2023/07/27 09:41:13;;;;;;;8.52;4.38;;;14.40;99.90;;;;;;5070934;28;20200;-77
2023/07/27 09:43:43;;;;;;;7.60;4.75;;;14.40;99.90;;;;;;5063509;28;20564;-77
2023/07/27 09:46:14;;;;;;;9.10;5.05;;;14.30;99.90;;;;;;5063695;28;20203;-78
2023/07/27 09:48:46;;;;;;;10.48;5.18;;;14.30;99.90;;;;;;5069574;28;20197;-78
2023/07/27 09:51:18;;;;;;;10.68;4.93;;;14.30;99.90;;;;;;5061209;28;20209;-77
2023/07/27 09:53:52;;;;;;;8.57;4.82;;;14.30;99.90;;;;;;5071600;28;20698;-78
2023/07/27 09:56:24;;;;;;;9.02;5.13;;;14.20;99.90;;;;;;5064357;28;20217;-77
2023/07/27 09:58:55;;;;;;;7.65;4.82;;;14.20;99.90;;;;;;5070547;28;20201;-77
2023/07/27 10:01:26;;;;;;;8.10;5.07;;;14.20;99.90;;;;;;5069639;28;20197;-78
2023/07/27 10:03:58;;;;;;;9.27;5.40;;;14.20;99.90;;;;;;5068319;28;20263;-77
2023/07/27 10:06:29;;;;;;;9.77;5.55;;;14.20;99.90;;;;;;5055773;28;20198;-77
2023/07/27 10:09:02;;;;;;;11.30;5.90;;;14.20;99.90;;;;;;5055000;28;20233;-77
2023/07/27 10:11:53;;;;;;;8.27;4.70;;;14.10;99.90;;;;;;5057216;28;20233;-78
2023/07/27 10:14:26;;;;;;;10.30;5.43;;;14.10;99.90;;;;;;5062426;28;20196;-77
2023/07/27 10:17:06;;;;;;;7.93;4.65;;;14.10;99.90;;;;;;5056412;28;20372;-77
2023/07/27 10:19:46;;;;;;;8.55;4.88;;;14.00;99.90;;;;;;5056108;28;20201;-78
2023/07/27 10:22:18;;;;;;;7.28;4.72;;;14.00;99.90;;;;;;5064264;28;20206;-78
2023/07/27 10:24:56;;;;;;;9.20;4.88;;;14.00;99.90;;;;;;5055956;28;20197;-78
2023/07/27 10:27:27;;;;;;;7.38;4.70;;;14.00;99.90;;;;;;5057421;28;20208;-77
2023/07/27 10:30:12;;;;;;;7.63;4.45;;;13.90;99.90;;;;;;5066015;28;22293;-77
2023/07/27 10:33:03;;;;;;;11.18;4.97;;;13.90;99.90;;;;;;5054580;28;20232;-78
2023/07/27 10:35:55;;;;;;;9.40;4.45;;;13.90;99.90;;;;;;5066585;28;22107;-77
2023/07/27 10:38:27;;;;;;;8.68;4.65;;;13.90;99.90;;;;;;5061610;28;20221;-77
2023/07/27 10:41:12;;;;;;;8.77;4.72;;;13.90;99.90;;;;;;5068352;28;20682;-78
2023/07/27 10:44:22;;;;;;;6.88;4.25;;;13.90;99.90;;;;;;5058849;28;20689;-76
2023/07/27 10:46:59;;;;;;;7.57;4.25;;;13.80;99.90;;;;;;5055459;28;20193;-77
2023/07/27 10:49:31;;;;;;;10.30;4.95;;;13.90;99.90;;;;;;5059959;28;20208;-76
2023/07/27 10:52:01;;;;;;;6.47;4.53;;;14.00;99.90;;;;;;5057076;28;20203;-77
2023/07/27 10:54:34;;;;;;;5.72;4.05;;;14.00;99.90;;;;;;5054422;28;20197;-76
2023/07/27 10:57:09;;;;;;;5.97;4.10;;;14.00;99.90;;;;;;5057361;28;20217;-77
2023/07/27 10:59:41;;;;;;;7.60;4.20;;;14.00;99.90;;;;;;5063798;28;20196;-77
2023/07/27 11:02:17;;;;;;;7.43;4.05;;;14.00;99.90;;;;;;5066479;28;20233;-77
2023/07/27 11:04:51;;;;;;;7.10;4.00;;;13.90;99.90;;;;;;5064975;28;20683;-77
2023/07/27 11:07:32;;;;;;;8.85;3.97;;;14.00;99.90;;;;;;5058855;28;21810;-77
2023/07/27 11:10:05;;;;;;;7.13;4.20;;;13.90;99.90;;;;;;5060401;28;20229;-77
2023/07/27 11:12:48;;;;;;;6.65;3.70;;;13.90;99.90;;;;;;5060579;28;20207;-77
2023/07/27 11:15:20;;;;;;;7.07;4.00;;;13.80;99.90;;;;;;5065673;28;20234;-77
2023/07/27 11:17:53;;;;;;;8.23;3.83;;;13.80;99.90;;;;;;5062514;28;20276;-76
2023/07/27 11:20:25;;;;;;;8.48;3.63;;;13.80;99.90;;;;;;5067995;28;20196;-75
2023/07/27 11:22:57;;;;;;;8.07;4.18;;;13.80;99.90;;;;;;5072553;28;20196;-76
2023/07/27 11:25:28;;;;;;;5.68;3.83;;;13.70;99.90;;;;;;5055861;28;20617;-77
2023/07/27 11:28:02;;;;;;;5.78;4.00;;;13.70;99.90;;;;;;5062809;28;20625;-76
2023/07/27 11:30:34;;;;;;;6.30;3.95;;;13.70;99.90;;;;;;5067705;28;20279;-76
2023/07/27 11:33:05;;;;;;;6.78;4.15;;;13.70;99.90;;;;;;5058428;28;20199;-77
2023/07/27 11:35:46;;;;;;;6.55;4.45;;;13.60;99.90;;;;;;5067184;28;20212;-77
2023/07/27 11:38:17;;;;;;;9.73;4.50;;;13.60;99.90;;;;;;5069761;28;20224;-76
2023/07/27 11:40:50;;;;;;;8.10;4.78;;;13.50;99.90;;;;;;5061326;28;20217;-76
2023/07/27 11:43:22;;;;;;;5.75;4.40;;;13.50;99.90;;;;;;5063171;28;20200;-76
2023/07/27 11:45:57;;;;;;;9.93;4.63;;;13.40;99.90;;;;;;5070282;28;20613;-76
2023/07/27 11:48:34;;;;;;;5.00;3.80;;;13.40;99.90;;;;;;5069700;28;20207;-75
2023/07/27 11:51:06;;;;;;;8.75;4.28;;;13.40;99.90;;;;;;5066757;28;20193;-77
2023/07/27 11:53:37;;;;;;;6.93;4.20;;;13.30;99.90;;;;;;5068806;28;20587;-77
2023/07/27 11:56:12;;;;;;;5.95;3.80;;;13.30;99.90;;;;;;5073753;28;20219;-75
2023/07/27 11:58:45;;;;;;;4.85;3.95;;;13.20;99.90;;;;;;5074811;28;20204;-76
2023/07/27 12:01:17;;;;;;;7.07;4.30;;;13.20;99.90;;;;;;5060816;28;20198;-77
2023/07/27 12:03:48;;;;;;;8.13;4.40;;;13.20;99.90;;;;;;5054888;28;20204;-75
2023/07/27 12:06:24;;;;;;;7.90;4.55;;;13.10;99.90;;;;;;5068981;28;20201;-78
2023/07/27 12:08:56;;;;;;;8.55;4.82;;;13.10;99.90;;;;;;5071205;28;20281;-74
2023/07/27 12:11:31;;;;;;;7.55;4.25;;;13.00;99.90;;;;;;5068291;28;20232;-75
2023/07/27 12:14:06;;;;;;;6.15;4.38;;;13.00;99.90;;;;;;5073083;28;20188;-77
2023/07/27 12:16:41;;;;;;;7.15;4.30;;;13.00;99.90;;;;;;5068651;28;20316;-77
2023/07/27 12:19:12;;;;;;;7.30;4.53;;;13.00;99.90;;;;;;5064636;28;20201;-75
2023/07/27 12:21:43;;;;;;;7.57;4.68;;;13.00;99.90;;;;;;5060788;28;20228;-76
2023/07/27 12:24:14;;;;;;;6.93;4.90;;;13.00;99.90;;;;;;5059435;28;20197;-77
2023/07/27 12:26:45;;;;;;;9.80;5.22;;;12.90;99.90;;;;;;5057495;28;20621;-76
2023/07/27 12:29:18;;;;;;;7.03;4.63;;;12.90;99.90;;;;;;5062100;28;20225;-76
2023/07/27 12:31:49;;;;;;;6.35;4.97;;;12.90;99.90;;;;;;5055790;28;20669;-76
2023/07/27 12:34:20;;;;;;;8.43;4.93;;;12.90;99.90;;;;;;5054053;28;20201;-76
2023/07/27 12:36:54;;;;;;;8.82;5.38;;;12.90;99.90;;;;;;5054154;28;20221;-76
2023/07/27 12:39:25;;;;;;;7.28;4.80;;;12.90;99.90;;;;;;5062840;28;20205;-76
2023/07/27 12:41:55;;;;;;;6.88;4.93;;;12.90;99.90;;;;;;5060637;28;20634;-75
2023/07/27 12:44:32;;;;;;;10.02;4.95;;;12.90;99.90;;;;;;5054567;28;20209;-78
2023/07/27 12:47:03;;;;;;;8.93;4.80;;;12.90;99.90;;;;;;5055544;28;20193;-78
2023/07/27 12:49:34;;;;;;;7.30;4.47;;;12.90;99.90;;;;;;5055256;28;20293;-76
2023/07/27 12:52:05;;;;;;;7.00;4.35;;;12.90;99.90;;;;;;5058694;28;20197;-78
2023/07/27 12:54:36;;;;;;;8.52;4.72;;;12.90;99.90;;;;;;5066958;28;20189;-75
2023/07/27 12:57:07;;;;;;;6.43;4.47;;;12.80;99.90;;;;;;5073465;28;20221;-76
2023/07/27 12:59:40;;;;;;;6.93;4.80;;;12.80;99.90;;;;;;5073499;28;20209;-77
2023/07/27 13:02:11;;;;;;;7.55;4.90;;;12.80;99.90;;;;;;5075033;28;20189;-77
2023/07/27 13:04:41;;;;;;;6.18;4.43;;;12.70;99.90;;;;;;5062582;28;20215;-78
2023/07/27 13:07:13;;;;;;;8.23;4.65;;;12.70;99.90;;;;;;5058395;28;20194;-78
2023/07/27 13:09:44;;;;;;;5.78;4.00;;;12.70;99.90;;;;;;5065043;28;20229;-77
2023/07/27 13:12:14;;;;;;;7.25;4.28;;;12.70;99.90;;;;;;5056030;28;20202;-77